sensor_id;sensor_type;location;lat;lon;timestamp;temperature;humidity
7292;DHT22;3687;47.648;8.204;2022-07-17T00:00:40;26.70;63.90
7292;DHT22;3687;47.648;8.204;2022-07-17T00:03:15;26.70;63.90
7292;DHT22;3687;47.648;8.204;2022-07-17T00:05:42;26.70;64.10
7292;DHT22;3687;47.648;8.204;2022-07-17T00:08:09;26.70;64.10
7292;DHT22;3687;47.648;8.204;2022-07-17T00:10:36;26.70;64.20
7292;DHT22;3687;47.648;8.204;2022-07-17T00:13:02;26.70;64.30
7292;DHT22;3687;47.648;8.204;2022-07-17T00:15:28;26.70;64.40
7292;DHT22;3687;47.648;8.204;2022-07-17T00:17:54;26.70;64.60
7292;DHT22;3687;47.648;8.204;2022-07-17T00:20:19;26.70;64.60
7292;DHT22;3687;47.648;8.204;2022-07-17T00:22:45;26.70;64.60
7292;DHT22;3687;47.648;8.204;2022-07-17T00:25:12;26.70;64.70
7292;DHT22;3687;47.648;8.204;2022-07-17T00:27:39;26.70;64.70
7292;DHT22;3687;47.648;8.204;2022-07-17T00:30:05;26.70;64.80
7292;DHT22;3687;47.648;8.204;2022-07-17T00:32:31;26.70;64.90
7292;DHT22;3687;47.648;8.204;2022-07-17T00:34:56;26.70;65.00
7292;DHT22;3687;47.648;8.204;2022-07-17T00:37:22;26.70;65.10
7292;DHT22;3687;47.648;8.204;2022-07-17T00:39:48;26.70;65.20
7292;DHT22;3687;47.648;8.204;2022-07-17T00:42:15;26.70;65.10
7292;DHT22;3687;47.648;8.204;2022-07-17T00:44:42;26.70;65.10
7292;DHT22;3687;47.648;8.204;2022-07-17T00:47:18;26.70;65.20
7292;DHT22;3687;47.648;8.204;2022-07-17T00:49:45;26.70;65.30
7292;DHT22;3687;47.648;8.204;2022-07-17T00:52:11;26.70;65.40
7292;DHT22;3687;47.648;8.204;2022-07-17T00:54:39;26.70;65.40
7292;DHT22;3687;47.648;8.204;2022-07-17T00:57:07;26.70;65.50
7292;DHT22;3687;47.648;8.204;2022-07-17T00:59:33;26.70;65.70
7292;DHT22;3687;47.648;8.204;2022-07-17T01:02:04;26.70;65.80
7292;DHT22;3687;47.648;8.204;2022-07-17T01:04:30;26.70;65.80
7292;DHT22;3687;47.648;8.204;2022-07-17T01:06:56;26.70;65.80
7292;DHT22;3687;47.648;8.204;2022-07-17T01:09:23;26.70;65.90
7292;DHT22;3687;47.648;8.204;2022-07-17T01:11:49;26.70;66.00
7292;DHT22;3687;47.648;8.204;2022-07-17T01:14:16;26.70;66.20
7292;DHT22;3687;47.648;8.204;2022-07-17T01:16:42;26.70;66.40
7292;DHT22;3687;47.648;8.204;2022-07-17T01:19:10;26.70;66.40
7292;DHT22;3687;47.648;8.204;2022-07-17T01:21:45;26.70;66.60
7292;DHT22;3687;47.648;8.204;2022-07-17T01:24:11;26.70;66.40
7292;DHT22;3687;47.648;8.204;2022-07-17T01:26:37;26.70;66.50
7292;DHT22;3687;47.648;8.204;2022-07-17T01:29:05;26.70;66.50
7292;DHT22;3687;47.648;8.204;2022-07-17T01:31:30;26.70;66.60
7292;DHT22;3687;47.648;8.204;2022-07-17T01:33:56;26.70;66.60
7292;DHT22;3687;47.648;8.204;2022-07-17T01:36:24;26.70;66.60
7292;DHT22;3687;47.648;8.204;2022-07-17T01:38:50;26.70;66.70
7292;DHT22;3687;47.648;8.204;2022-07-17T01:41:16;26.70;66.70
7292;DHT22;3687;47.648;8.204;2022-07-17T01:43:42;26.70;66.70
7292;DHT22;3687;47.648;8.204;2022-07-17T01:46:07;26.70;66.80
7292;DHT22;3687;47.648;8.204;2022-07-17T01:48:33;26.70;66.80
7292;DHT22;3687;47.648;8.204;2022-07-17T01:50:59;26.70;66.80
7292;DHT22;3687;47.648;8.204;2022-07-17T01:53:24;26.70;66.80
7292;DHT22;3687;47.648;8.204;2022-07-17T01:55:50;26.70;66.90
7292;DHT22;3687;47.648;8.204;2022-07-17T01:58:16;26.70;67.00
7292;DHT22;3687;47.648;8.204;2022-07-17T02:00:42;26.70;67.10
7292;DHT22;3687;47.648;8.204;2022-07-17T02:03:07;26.70;67.30
7292;DHT22;3687;47.648;8.204;2022-07-17T02:05:33;26.70;67.40
7292;DHT22;3687;47.648;8.204;2022-07-17T02:07:59;26.70;67.40
7292;DHT22;3687;47.648;8.204;2022-07-17T02:10:24;26.70;67.50
7292;DHT22;3687;47.648;8.204;2022-07-17T02:12:50;26.70;67.50
7292;DHT22;3687;47.648;8.204;2022-07-17T02:15:16;26.70;67.60
7292;DHT22;3687;47.648;8.204;2022-07-17T02:17:41;26.70;67.70
7292;DHT22;3687;47.648;8.204;2022-07-17T02:20:08;26.70;67.70
7292;DHT22;3687;47.648;8.204;2022-07-17T02:22:34;26.70;67.70
7292;DHT22;3687;47.648;8.204;2022-07-17T02:25:00;26.70;67.70
7292;DHT22;3687;47.648;8.204;2022-07-17T02:27:25;26.70;67.70
7292;DHT22;3687;47.648;8.204;2022-07-17T02:29:51;26.70;67.80
7292;DHT22;3687;47.648;8.204;2022-07-17T02:32:16;26.70;67.80
7292;DHT22;3687;47.648;8.204;2022-07-17T02:34:42;26.70;67.80
7292;DHT22;3687;47.648;8.204;2022-07-17T02:37:08;26.70;67.80
7292;DHT22;3687;47.648;8.204;2022-07-17T02:39:34;26.70;67.80
7292;DHT22;3687;47.648;8.204;2022-07-17T02:41:59;26.70;67.80
7292;DHT22;3687;47.648;8.204;2022-07-17T02:44:25;26.70;67.90
7292;DHT22;3687;47.648;8.204;2022-07-17T02:46:51;26.70;67.90
7292;DHT22;3687;47.648;8.204;2022-07-17T02:49:17;26.70;67.90
7292;DHT22;3687;47.648;8.204;2022-07-17T02:51:42;26.70;67.90
7292;DHT22;3687;47.648;8.204;2022-07-17T02:54:08;26.70;67.90
7292;DHT22;3687;47.648;8.204;2022-07-17T02:56:33;26.70;68.10
7292;DHT22;3687;47.648;8.204;2022-07-17T02:58:59;26.70;68.10
7292;DHT22;3687;47.648;8.204;2022-07-17T03:01:25;26.70;68.20
7292;DHT22;3687;47.648;8.204;2022-07-17T03:03:50;26.70;68.20
7292;DHT22;3687;47.648;8.204;2022-07-17T03:06:16;26.70;68.30
7292;DHT22;3687;47.648;8.204;2022-07-17T03:08:41;26.70;68.20
7292;DHT22;3687;47.648;8.204;2022-07-17T03:11:07;26.70;68.20
7292;DHT22;3687;47.648;8.204;2022-07-17T03:13:32;26.70;68.20
7292;DHT22;3687;47.648;8.204;2022-07-17T03:15:58;26.70;68.20
7292;DHT22;3687;47.648;8.204;2022-07-17T03:18:23;26.70;68.30
7292;DHT22;3687;47.648;8.204;2022-07-17T03:20:49;26.70;68.50
7292;DHT22;3687;47.648;8.204;2022-07-17T03:23:15;26.70;68.40
7292;DHT22;3687;47.648;8.204;2022-07-17T03:25:40;26.70;68.50
7292;DHT22;3687;47.648;8.204;2022-07-17T03:28:06;26.70;68.40
7292;DHT22;3687;47.648;8.204;2022-07-17T03:30:31;26.70;68.40
7292;DHT22;3687;47.648;8.204;2022-07-17T03:32:57;26.70;68.30
7292;DHT22;3687;47.648;8.204;2022-07-17T03:35:22;26.60;68.20
7292;DHT22;3687;47.648;8.204;2022-07-17T03:37:48;26.70;68.40
7292;DHT22;3687;47.648;8.204;2022-07-17T03:40:13;26.70;68.30
7292;DHT22;3687;47.648;8.204;2022-07-17T03:42:39;26.60;68.20
7292;DHT22;3687;47.648;8.204;2022-07-17T03:45:05;26.60;68.10
7292;DHT22;3687;47.648;8.204;2022-07-17T03:47:32;26.60;68.00
7292;DHT22;3687;47.648;8.204;2022-07-17T03:49:57;26.60;68.10
7292;DHT22;3687;47.648;8.204;2022-07-17T03:52:23;26.60;68.20
7292;DHT22;3687;47.648;8.204;2022-07-17T03:54:48;26.60;69.00
7292;DHT22;3687;47.648;8.204;2022-07-17T03:57:14;26.60;68.40
7292;DHT22;3687;47.648;8.204;2022-07-17T03:59:39;26.60;68.50
7292;DHT22;3687;47.648;8.204;2022-07-17T04:02:05;26.60;68.50
7292;DHT22;3687;47.648;8.204;2022-07-17T04:04:31;26.60;68.50
7292;DHT22;3687;47.648;8.204;2022-07-17T04:06:56;26.60;68.60
7292;DHT22;3687;47.648;8.204;2022-07-17T04:09:22;26.60;68.60
7292;DHT22;3687;47.648;8.204;2022-07-17T04:11:47;26.60;68.60
7292;DHT22;3687;47.648;8.204;2022-07-17T04:14:13;26.60;68.60
7292;DHT22;3687;47.648;8.204;2022-07-17T04:16:38;26.60;68.50
7292;DHT22;3687;47.648;8.204;2022-07-17T04:19:04;26.60;68.50
7292;DHT22;3687;47.648;8.204;2022-07-17T04:21:29;26.60;68.60
7292;DHT22;3687;47.648;8.204;2022-07-17T04:23:55;26.60;68.60
7292;DHT22;3687;47.648;8.204;2022-07-17T04:26:20;26.60;69.40
7292;DHT22;3687;47.648;8.204;2022-07-17T04:28:46;26.60;68.70
7292;DHT22;3687;47.648;8.204;2022-07-17T04:31:12;26.60;68.80
7292;DHT22;3687;47.648;8.204;2022-07-17T04:33:37;26.60;68.70
7292;DHT22;3687;47.648;8.204;2022-07-17T04:36:04;26.60;68.70
7292;DHT22;3687;47.648;8.204;2022-07-17T04:38:29;26.60;68.70
7292;DHT22;3687;47.648;8.204;2022-07-17T04:40:55;26.60;68.70
7292;DHT22;3687;47.648;8.204;2022-07-17T04:43:20;26.60;68.60
7292;DHT22;3687;47.648;8.204;2022-07-17T04:45:46;26.60;68.70
7292;DHT22;3687;47.648;8.204;2022-07-17T04:48:12;26.60;68.70
7292;DHT22;3687;47.648;8.204;2022-07-17T04:50:37;26.60;68.60
7292;DHT22;3687;47.648;8.204;2022-07-17T04:53:03;26.60;68.60
7292;DHT22;3687;47.648;8.204;2022-07-17T04:55:28;26.60;68.50
7292;DHT22;3687;47.648;8.204;2022-07-17T04:57:54;26.60;68.50
7292;DHT22;3687;47.648;8.204;2022-07-17T05:00:20;26.60;68.50
7292;DHT22;3687;47.648;8.204;2022-07-17T05:02:46;26.50;68.40
7292;DHT22;3687;47.648;8.204;2022-07-17T05:05:12;26.50;68.50
7292;DHT22;3687;47.648;8.204;2022-07-17T05:07:37;26.50;68.50
7292;DHT22;3687;47.648;8.204;2022-07-17T05:10:04;26.50;68.50
7292;DHT22;3687;47.648;8.204;2022-07-17T05:12:30;26.50;68.50
7292;DHT22;3687;47.648;8.204;2022-07-17T05:14:55;26.50;69.20
7292;DHT22;3687;47.648;8.204;2022-07-17T05:17:21;26.50;68.50
7292;DHT22;3687;47.648;8.204;2022-07-17T05:19:46;26.50;69.20
7292;DHT22;3687;47.648;8.204;2022-07-17T05:22:12;26.50;68.40
7292;DHT22;3687;47.648;8.204;2022-07-17T05:24:38;26.50;68.40
7292;DHT22;3687;47.648;8.204;2022-07-17T05:27:03;26.50;68.40
7292;DHT22;3687;47.648;8.204;2022-07-17T05:29:29;26.50;68.30
7292;DHT22;3687;47.648;8.204;2022-07-17T05:31:54;26.50;68.40
7292;DHT22;3687;47.648;8.204;2022-07-17T05:34:20;26.50;68.40
7292;DHT22;3687;47.648;8.204;2022-07-17T05:36:45;26.50;68.30
7292;DHT22;3687;47.648;8.204;2022-07-17T05:39:11;26.50;68.30
7292;DHT22;3687;47.648;8.204;2022-07-17T05:41:37;26.40;68.20
7292;DHT22;3687;47.648;8.204;2022-07-17T05:44:03;26.50;68.30
7292;DHT22;3687;47.648;8.204;2022-07-17T05:46:28;26.50;68.30
7292;DHT22;3687;47.648;8.204;2022-07-17T05:48:54;26.50;68.30
7292;DHT22;3687;47.648;8.204;2022-07-17T05:51:19;26.50;68.30
7292;DHT22;3687;47.648;8.204;2022-07-17T05:53:45;26.50;68.20
7292;DHT22;3687;47.648;8.204;2022-07-17T05:56:11;26.40;68.10
7292;DHT22;3687;47.648;8.204;2022-07-17T05:58:36;26.40;68.10
7292;DHT22;3687;47.648;8.204;2022-07-17T06:01:02;26.40;68.10
7292;DHT22;3687;47.648;8.204;2022-07-17T06:03:27;26.40;68.10
7292;DHT22;3687;47.648;8.204;2022-07-17T06:05:54;26.40;68.20
7292;DHT22;3687;47.648;8.204;2022-07-17T06:08:20;26.40;68.40
7292;DHT22;3687;47.648;8.204;2022-07-17T06:10:45;26.40;68.40
7292;DHT22;3687;47.648;8.204;2022-07-17T06:13:11;26.40;68.60
7292;DHT22;3687;47.648;8.204;2022-07-17T06:15:36;26.40;68.60
7292;DHT22;3687;47.648;8.204;2022-07-17T06:18:03;26.40;68.70
7292;DHT22;3687;47.648;8.204;2022-07-17T06:20:29;26.40;68.80
7292;DHT22;3687;47.648;8.204;2022-07-17T06:22:54;26.40;68.90
7292;DHT22;3687;47.648;8.204;2022-07-17T06:25:20;26.40;69.00
7292;DHT22;3687;47.648;8.204;2022-07-17T06:27:46;26.40;68.90
7292;DHT22;3687;47.648;8.204;2022-07-17T06:30:13;26.40;69.00
7292;DHT22;3687;47.648;8.204;2022-07-17T06:32:39;26.40;69.10
7292;DHT22;3687;47.648;8.204;2022-07-17T06:35:05;26.40;69.00
7292;DHT22;3687;47.648;8.204;2022-07-17T06:37:31;26.40;69.00
7292;DHT22;3687;47.648;8.204;2022-07-17T06:39:57;26.40;69.00
7292;DHT22;3687;47.648;8.204;2022-07-17T06:42:22;26.40;68.90
7292;DHT22;3687;47.648;8.204;2022-07-17T06:44:48;26.40;68.80
7292;DHT22;3687;47.648;8.204;2022-07-17T06:47:14;26.40;68.80
7292;DHT22;3687;47.648;8.204;2022-07-17T06:49:39;26.40;68.80
7292;DHT22;3687;47.648;8.204;2022-07-17T06:52:05;26.40;68.70
7292;DHT22;3687;47.648;8.204;2022-07-17T06:54:30;26.40;68.70
7292;DHT22;3687;47.648;8.204;2022-07-17T06:56:56;26.40;69.30
7292;DHT22;3687;47.648;8.204;2022-07-17T06:59:22;26.40;68.50
7292;DHT22;3687;47.648;8.204;2022-07-17T07:01:47;26.40;68.40
7292;DHT22;3687;47.648;8.204;2022-07-17T07:04:13;26.40;68.30
7292;DHT22;3687;47.648;8.204;2022-07-17T07:06:39;26.40;68.30
7292;DHT22;3687;47.648;8.204;2022-07-17T07:09:05;26.40;68.50
7292;DHT22;3687;47.648;8.204;2022-07-17T07:11:31;26.40;68.90
7292;DHT22;3687;47.648;8.204;2022-07-17T07:13:56;26.40;69.20
7292;DHT22;3687;47.648;8.204;2022-07-17T07:16:22;26.40;69.50
7292;DHT22;3687;47.648;8.204;2022-07-17T07:18:47;26.40;69.70
7292;DHT22;3687;47.648;8.204;2022-07-17T07:21:13;26.40;69.80
7292;DHT22;3687;47.648;8.204;2022-07-17T07:23:39;26.40;70.10
7292;DHT22;3687;47.648;8.204;2022-07-17T07:26:04;26.40;70.30
7292;DHT22;3687;47.648;8.204;2022-07-17T07:28:30;26.40;69.10
7292;DHT22;3687;47.648;8.204;2022-07-17T07:30:55;26.30;66.80
7292;DHT22;3687;47.648;8.204;2022-07-17T07:33:21;26.20;65.20
7292;DHT22;3687;47.648;8.204;2022-07-17T07:35:47;26.00;63.20
7292;DHT22;3687;47.648;8.204;2022-07-17T07:38:12;25.90;63.20
7292;DHT22;3687;47.648;8.204;2022-07-17T07:40:38;25.90;62.30
7292;DHT22;3687;47.648;8.204;2022-07-17T07:43:04;25.60;61.30
7292;DHT22;3687;47.648;8.204;2022-07-17T07:45:29;25.70;61.30
7292;DHT22;3687;47.648;8.204;2022-07-17T07:47:56;25.60;61.20
7292;DHT22;3687;47.648;8.204;2022-07-17T07:50:23;25.60;61.20
7292;DHT22;3687;47.648;8.204;2022-07-17T07:52:50;25.70;61.30
7292;DHT22;3687;47.648;8.204;2022-07-17T07:55:16;25.60;60.90
7292;DHT22;3687;47.648;8.204;2022-07-17T07:57:42;25.60;61.00
7292;DHT22;3687;47.648;8.204;2022-07-17T08:00:10;25.60;60.90
7292;DHT22;3687;47.648;8.204;2022-07-17T08:02:37;25.70;60.90
7292;DHT22;3687;47.648;8.204;2022-07-17T08:05:03;25.70;60.60
7292;DHT22;3687;47.648;8.204;2022-07-17T08:07:29;25.70;60.60
7292;DHT22;3687;47.648;8.204;2022-07-17T08:09:55;25.70;60.60
7292;DHT22;3687;47.648;8.204;2022-07-17T08:12:21;25.70;60.70
7292;DHT22;3687;47.648;8.204;2022-07-17T08:14:47;25.70;60.70
7292;DHT22;3687;47.648;8.204;2022-07-17T08:17:12;25.60;60.80
7292;DHT22;3687;47.648;8.204;2022-07-17T08:19:38;25.50;60.70
7292;DHT22;3687;47.648;8.204;2022-07-17T08:22:04;25.60;60.90
7292;DHT22;3687;47.648;8.204;2022-07-17T08:24:29;25.60;60.80
7292;DHT22;3687;47.648;8.204;2022-07-17T08:26:55;25.50;60.70
7292;DHT22;3687;47.648;8.204;2022-07-17T08:29:21;25.50;60.70
7292;DHT22;3687;47.648;8.204;2022-07-17T08:31:46;25.50;60.70
7292;DHT22;3687;47.648;8.204;2022-07-17T08:34:12;25.50;60.90
7292;DHT22;3687;47.648;8.204;2022-07-17T08:36:40;25.50;61.40
7292;DHT22;3687;47.648;8.204;2022-07-17T08:39:05;25.60;62.00
7292;DHT22;3687;47.648;8.204;2022-07-17T08:41:32;25.60;62.70
7292;DHT22;3687;47.648;8.204;2022-07-17T08:44:06;25.60;62.80
7292;DHT22;3687;47.648;8.204;2022-07-17T08:46:36;25.60;62.80
7292;DHT22;3687;47.648;8.204;2022-07-17T08:49:04;25.70;62.80
7292;DHT22;3687;47.648;8.204;2022-07-17T08:51:31;25.70;62.60
7292;DHT22;3687;47.648;8.204;2022-07-17T08:53:56;25.70;62.50
7292;DHT22;3687;47.648;8.204;2022-07-17T08:56:22;25.70;62.30
7292;DHT22;3687;47.648;8.204;2022-07-17T08:58:48;25.70;62.30
7292;DHT22;3687;47.648;8.204;2022-07-17T09:01:15;25.70;62.20
7292;DHT22;3687;47.648;8.204;2022-07-17T09:03:56;25.70;62.10
7292;DHT22;3687;47.648;8.204;2022-07-17T09:06:23;25.70;62.00
7292;DHT22;3687;47.648;8.204;2022-07-17T09:09:00;25.70;61.80
7292;DHT22;3687;47.648;8.204;2022-07-17T09:11:28;25.70;61.70
7292;DHT22;3687;47.648;8.204;2022-07-17T09:13:55;25.70;61.50
7292;DHT22;3687;47.648;8.204;2022-07-17T09:16:21;25.70;61.40
7292;DHT22;3687;47.648;8.204;2022-07-17T09:18:51;25.70;61.40
7292;DHT22;3687;47.648;8.204;2022-07-17T09:21:24;25.80;61.50
7292;DHT22;3687;47.648;8.204;2022-07-17T09:24:03;25.70;61.30
7292;DHT22;3687;47.648;8.204;2022-07-17T09:26:32;25.80;61.50
7292;DHT22;3687;47.648;8.204;2022-07-17T09:28:59;25.80;61.50
7292;DHT22;3687;47.648;8.204;2022-07-17T09:31:30;25.80;61.20
7292;DHT22;3687;47.648;8.204;2022-07-17T09:33:57;25.80;61.10
7292;DHT22;3687;47.648;8.204;2022-07-17T09:36:23;25.80;61.10
7292;DHT22;3687;47.648;8.204;2022-07-17T09:38:53;25.80;61.20
7292;DHT22;3687;47.648;8.204;2022-07-17T09:41:20;25.80;61.20
7292;DHT22;3687;47.648;8.204;2022-07-17T09:43:50;25.80;61.10
7292;DHT22;3687;47.648;8.204;2022-07-17T09:46:22;25.80;61.00
7292;DHT22;3687;47.648;8.204;2022-07-17T09:48:50;25.80;60.80
7292;DHT22;3687;47.648;8.204;2022-07-17T09:51:19;25.80;60.60
7292;DHT22;3687;47.648;8.204;2022-07-17T09:53:46;25.80;60.40
7292;DHT22;3687;47.648;8.204;2022-07-17T09:56:18;25.80;60.40
7292;DHT22;3687;47.648;8.204;2022-07-17T09:58:49;25.90;60.50
7292;DHT22;3687;47.648;8.204;2022-07-17T10:01:16;25.80;60.50
7292;DHT22;3687;47.648;8.204;2022-07-17T10:03:42;25.90;60.70
7292;DHT22;3687;47.648;8.204;2022-07-17T10:06:10;25.80;60.70
7292;DHT22;3687;47.648;8.204;2022-07-17T10:08:37;25.90;60.80
7292;DHT22;3687;47.648;8.204;2022-07-17T10:11:05;25.80;60.70
7292;DHT22;3687;47.648;8.204;2022-07-17T10:13:31;25.90;60.70
7292;DHT22;3687;47.648;8.204;2022-07-17T10:15:57;25.90;60.70
7292;DHT22;3687;47.648;8.204;2022-07-17T10:18:37;25.90;60.70
7292;DHT22;3687;47.648;8.204;2022-07-17T10:21:17;25.90;60.80
7292;DHT22;3687;47.648;8.204;2022-07-17T10:23:48;25.90;60.90
7292;DHT22;3687;47.648;8.204;2022-07-17T10:29:02;25.90;60.70
7292;DHT22;3687;47.648;8.204;2022-07-17T10:31:29;25.90;60.80
7292;DHT22;3687;47.648;8.204;2022-07-17T10:34:05;25.90;60.80
7292;DHT22;3687;47.648;8.204;2022-07-17T10:36:42;25.90;60.80
7292;DHT22;3687;47.648;8.204;2022-07-17T10:39:11;25.90;61.00
7292;DHT22;3687;47.648;8.204;2022-07-17T10:41:38;25.90;61.10
7292;DHT22;3687;47.648;8.204;2022-07-17T10:44:04;25.90;61.10
7292;DHT22;3687;47.648;8.204;2022-07-17T10:46:29;25.90;61.10
7292;DHT22;3687;47.648;8.204;2022-07-17T10:48:55;25.90;61.20
7292;DHT22;3687;47.648;8.204;2022-07-17T10:51:24;26.00;61.20
7292;DHT22;3687;47.648;8.204;2022-07-17T10:53:50;26.00;61.10
7292;DHT22;3687;47.648;8.204;2022-07-17T10:56:16;26.00;61.10
7292;DHT22;3687;47.648;8.204;2022-07-17T10:58:43;26.00;61.00
7292;DHT22;3687;47.648;8.204;2022-07-17T11:01:17;26.00;60.90
7292;DHT22;3687;47.648;8.204;2022-07-17T11:03:52;26.00;61.00
7292;DHT22;3687;47.648;8.204;2022-07-17T11:06:37;26.00;61.10
7292;DHT22;3687;47.648;8.204;2022-07-17T11:09:08;26.00;61.00
7292;DHT22;3687;47.648;8.204;2022-07-17T11:11:49;26.00;61.10
7292;DHT22;3687;47.648;8.204;2022-07-17T11:14:21;26.00;61.20
7292;DHT22;3687;47.648;8.204;2022-07-17T11:16:56;26.00;61.30
7292;DHT22;3687;47.648;8.204;2022-07-17T11:21:51;26.00;61.40
7292;DHT22;3687;47.648;8.204;2022-07-17T11:24:17;26.10;61.50
7292;DHT22;3687;47.648;8.204;2022-07-17T11:26:43;26.10;61.50
7292;DHT22;3687;47.648;8.204;2022-07-17T11:29:12;26.10;61.40
7292;DHT22;3687;47.648;8.204;2022-07-17T11:31:38;26.10;61.40
7292;DHT22;3687;47.648;8.204;2022-07-17T11:34:08;26.10;61.40
7292;DHT22;3687;47.648;8.204;2022-07-17T11:36:43;26.10;61.50
7292;DHT22;3687;47.648;8.204;2022-07-17T11:39:13;26.20;62.70
7292;DHT22;3687;47.648;8.204;2022-07-17T11:41:41;26.40;63.30
7292;DHT22;3687;47.648;8.204;2022-07-17T11:44:15;26.40;62.80
7292;DHT22;3687;47.648;8.204;2022-07-17T11:46:42;26.40;62.40
7292;DHT22;3687;47.648;8.204;2022-07-17T11:49:08;26.40;62.20
7292;DHT22;3687;47.648;8.204;2022-07-17T11:51:36;26.40;62.10
7292;DHT22;3687;47.648;8.204;2022-07-17T11:54:11;26.40;61.80
7292;DHT22;3687;47.648;8.204;2022-07-17T11:56:37;26.40;61.60
7292;DHT22;3687;47.648;8.204;2022-07-17T11:59:03;26.40;61.50
7292;DHT22;3687;47.648;8.204;2022-07-17T12:01:44;26.40;61.90
7292;DHT22;3687;47.648;8.204;2022-07-17T12:04:12;26.40;60.70
7292;DHT22;3687;47.648;8.204;2022-07-17T12:06:38;26.40;60.70
7292;DHT22;3687;47.648;8.204;2022-07-17T12:09:05;26.40;60.50
7292;DHT22;3687;47.648;8.204;2022-07-17T12:11:31;26.40;60.50
7292;DHT22;3687;47.648;8.204;2022-07-17T12:14:04;26.40;60.50
7292;DHT22;3687;47.648;8.204;2022-07-17T12:16:32;26.50;60.40
7292;DHT22;3687;47.648;8.204;2022-07-17T12:19:09;26.40;60.30
7292;DHT22;3687;47.648;8.204;2022-07-17T12:21:58;26.50;60.40
7292;DHT22;3687;47.648;8.204;2022-07-17T12:24:46;26.50;60.40
7292;DHT22;3687;47.648;8.204;2022-07-17T12:27:13;26.50;60.40
7292;DHT22;3687;47.648;8.204;2022-07-17T12:29:44;26.50;60.30
7292;DHT22;3687;47.648;8.204;2022-07-17T12:32:12;26.50;60.10
7292;DHT22;3687;47.648;8.204;2022-07-17T12:34:40;26.50;60.00
7292;DHT22;3687;47.648;8.204;2022-07-17T12:37:19;26.50;59.80
7292;DHT22;3687;47.648;8.204;2022-07-17T12:39:46;26.50;59.80
7292;DHT22;3687;47.648;8.204;2022-07-17T12:42:15;26.60;59.70
7292;DHT22;3687;47.648;8.204;2022-07-17T12:44:42;26.60;59.50
7292;DHT22;3687;47.648;8.204;2022-07-17T12:47:08;26.60;59.40
7292;DHT22;3687;47.648;8.204;2022-07-17T12:49:34;26.60;59.30
7292;DHT22;3687;47.648;8.204;2022-07-17T12:52:00;26.60;59.20
7292;DHT22;3687;47.648;8.204;2022-07-17T12:54:26;26.60;59.30
7292;DHT22;3687;47.648;8.204;2022-07-17T12:56:52;26.70;59.40
7292;DHT22;3687;47.648;8.204;2022-07-17T12:59:18;26.70;59.30
7292;DHT22;3687;47.648;8.204;2022-07-17T13:01:44;26.70;59.40
7292;DHT22;3687;47.648;8.204;2022-07-17T13:04:11;26.70;59.40
7292;DHT22;3687;47.648;8.204;2022-07-17T13:06:36;26.70;59.40
7292;DHT22;3687;47.648;8.204;2022-07-17T13:09:02;26.70;59.40
7292;DHT22;3687;47.648;8.204;2022-07-17T13:11:28;26.70;59.30
7292;DHT22;3687;47.648;8.204;2022-07-17T13:13:54;26.70;59.20
7292;DHT22;3687;47.648;8.204;2022-07-17T13:16:20;26.70;59.10
7292;DHT22;3687;47.648;8.204;2022-07-17T13:18:45;26.80;59.20
7292;DHT22;3687;47.648;8.204;2022-07-17T13:21:11;26.80;59.10
7292;DHT22;3687;47.648;8.204;2022-07-17T13:23:37;26.80;59.20
7292;DHT22;3687;47.648;8.204;2022-07-17T13:26:03;26.80;59.10
7292;DHT22;3687;47.648;8.204;2022-07-17T13:28:29;26.90;59.20
7292;DHT22;3687;47.648;8.204;2022-07-17T13:30:55;26.90;59.20
7292;DHT22;3687;47.648;8.204;2022-07-17T13:33:21;26.90;59.10
7292;DHT22;3687;47.648;8.204;2022-07-17T13:35:47;26.90;59.10
7292;DHT22;3687;47.648;8.204;2022-07-17T13:38:13;26.90;59.10
7292;DHT22;3687;47.648;8.204;2022-07-17T13:40:38;26.90;59.10
7292;DHT22;3687;47.648;8.204;2022-07-17T13:43:04;26.90;59.20
7292;DHT22;3687;47.648;8.204;2022-07-17T13:45:30;26.90;59.20
7292;DHT22;3687;47.648;8.204;2022-07-17T13:47:57;27.00;59.20
7292;DHT22;3687;47.648;8.204;2022-07-17T13:50:23;27.00;59.20
7292;DHT22;3687;47.648;8.204;2022-07-17T13:52:49;27.00;59.10
7292;DHT22;3687;47.648;8.204;2022-07-17T13:55:15;27.00;59.10
7292;DHT22;3687;47.648;8.204;2022-07-17T13:57:42;27.00;59.10
7292;DHT22;3687;47.648;8.204;2022-07-17T14:00:09;27.10;59.10
7292;DHT22;3687;47.648;8.204;2022-07-17T14:02:35;27.10;58.90
7292;DHT22;3687;47.648;8.204;2022-07-17T14:05:03;27.10;58.80
7292;DHT22;3687;47.648;8.204;2022-07-17T14:07:29;27.10;58.70
7292;DHT22;3687;47.648;8.204;2022-07-17T14:09:55;27.10;58.70
7292;DHT22;3687;47.648;8.204;2022-07-17T14:12:20;27.10;58.70
7292;DHT22;3687;47.648;8.204;2022-07-17T14:14:46;27.10;58.70
7292;DHT22;3687;47.648;8.204;2022-07-17T14:17:11;27.20;58.60
7292;DHT22;3687;47.648;8.204;2022-07-17T14:19:37;27.20;58.50
7292;DHT22;3687;47.648;8.204;2022-07-17T14:22:03;27.20;58.40
7292;DHT22;3687;47.648;8.204;2022-07-17T14:24:29;27.20;58.40
7292;DHT22;3687;47.648;8.204;2022-07-17T14:26:55;27.20;58.20
7292;DHT22;3687;47.648;8.204;2022-07-17T14:29:20;27.20;58.10
7292;DHT22;3687;47.648;8.204;2022-07-17T14:31:46;27.20;58.10
7292;DHT22;3687;47.648;8.204;2022-07-17T14:34:12;27.30;58.20
7292;DHT22;3687;47.648;8.204;2022-07-17T14:36:38;27.30;58.10
7292;DHT22;3687;47.648;8.204;2022-07-17T14:39:04;27.30;58.00
7292;DHT22;3687;47.648;8.204;2022-07-17T14:41:30;27.30;57.80
7292;DHT22;3687;47.648;8.204;2022-07-17T14:43:56;27.30;57.70
7292;DHT22;3687;47.648;8.204;2022-07-17T14:46:23;27.40;57.70
7292;DHT22;3687;47.648;8.204;2022-07-17T14:48:48;27.40;57.60
7292;DHT22;3687;47.648;8.204;2022-07-17T14:51:14;27.40;57.70
7292;DHT22;3687;47.648;8.204;2022-07-17T14:53:39;27.40;57.70
7292;DHT22;3687;47.648;8.204;2022-07-17T14:56:05;27.40;57.60
7292;DHT22;3687;47.648;8.204;2022-07-17T14:58:31;27.50;57.70
7292;DHT22;3687;47.648;8.204;2022-07-17T15:00:56;27.40;57.50
7292;DHT22;3687;47.648;8.204;2022-07-17T15:03:22;27.50;57.50
7292;DHT22;3687;47.648;8.204;2022-07-17T15:05:47;27.50;57.40
7292;DHT22;3687;47.648;8.204;2022-07-17T15:08:13;27.50;57.30
7292;DHT22;3687;47.648;8.204;2022-07-17T15:10:38;27.60;57.40
7292;DHT22;3687;47.648;8.204;2022-07-17T15:13:04;27.50;57.40
7292;DHT22;3687;47.648;8.204;2022-07-17T15:15:30;27.60;57.30
7292;DHT22;3687;47.648;8.204;2022-07-17T15:17:56;27.60;57.10
7292;DHT22;3687;47.648;8.204;2022-07-17T15:20:23;27.60;57.00
7292;DHT22;3687;47.648;8.204;2022-07-17T15:22:48;27.60;57.10
7292;DHT22;3687;47.648;8.204;2022-07-17T15:25:14;27.60;56.90
7292;DHT22;3687;47.648;8.204;2022-07-17T15:27:40;27.70;57.10
7292;DHT22;3687;47.648;8.204;2022-07-17T15:30:06;27.70;57.10
7292;DHT22;3687;47.648;8.204;2022-07-17T15:32:32;27.60;57.00
7292;DHT22;3687;47.648;8.204;2022-07-17T15:34:59;27.70;57.10
7292;DHT22;3687;47.648;8.204;2022-07-17T15:37:25;27.70;57.10
7292;DHT22;3687;47.648;8.204;2022-07-17T15:39:51;27.70;57.10
7292;DHT22;3687;47.648;8.204;2022-07-17T15:42:17;27.70;57.10
7292;DHT22;3687;47.648;8.204;2022-07-17T15:44:42;27.80;57.30
7292;DHT22;3687;47.648;8.204;2022-07-17T15:47:08;27.80;57.60
7292;DHT22;3687;47.648;8.204;2022-07-17T15:49:33;27.80;57.60
7292;DHT22;3687;47.648;8.204;2022-07-17T15:51:59;27.80;57.90
7292;DHT22;3687;47.648;8.204;2022-07-17T15:54:25;27.90;58.60
7292;DHT22;3687;47.648;8.204;2022-07-17T15:56:50;27.90;59.10
7292;DHT22;3687;47.648;8.204;2022-07-17T15:59:16;27.90;58.70
7292;DHT22;3687;47.648;8.204;2022-07-17T16:01:42;28.00;58.50
7292;DHT22;3687;47.648;8.204;2022-07-17T16:04:08;28.00;58.20